createdAt,value
2018-07-30T00:02:21.029Z,68.50
2018-07-30T00:04:50.439Z,67.94
2018-07-30T00:07:18.961Z,68.13
2018-07-30T00:09:47.512Z,68.31
2018-07-30T00:12:16.069Z,69.27
2018-07-30T00:14:44.642Z,70.25
2018-07-30T00:17:13.184Z,69.08
2018-07-30T00:19:42.066Z,72.22
2018-07-30T00:22:10.590Z,70.09
2018-07-30T00:24:39.153Z,68.88
2018-07-30T00:27:07.988Z,68.68
2018-07-30T00:29:36.592Z,68.52
2018-07-30T00:32:05.372Z,68.50
2018-07-30T00:34:33.929Z,69.14
2018-07-30T00:37:02.469Z,69.95
2018-07-30T00:39:31.036Z,71.21
2018-07-30T00:41:59.559Z,72.37
2018-07-30T00:44:28.140Z,71.29
2018-07-30T00:46:56.668Z,71.24
2018-07-30T00:49:25.234Z,70.41
2018-07-30T00:51:53.815Z,70.37
2018-07-30T00:54:22.389Z,70.77
2018-07-30T00:56:51.820Z,69.76
2018-07-30T00:59:20.351Z,71.84
2018-07-30T01:01:48.951Z,71.02
2018-07-30T01:04:17.473Z,72.30
2018-07-30T01:06:46.105Z,70.68
2018-07-30T01:09:14.672Z,70.48
2018-07-30T01:11:43.368Z,70.38
2018-07-30T01:14:14.763Z,71.18
2018-07-30T01:16:44.076Z,70.55
2018-07-30T01:19:12.613Z,70.34
2018-07-30T01:21:41.550Z,71.63
2018-07-30T01:24:10.119Z,72.57
2018-07-30T01:26:38.665Z,72.14
2018-07-30T01:29:07.200Z,71.71
2018-07-30T01:31:35.766Z,71.83
2018-07-30T01:34:04.328Z,71.81
2018-07-30T01:36:32.897Z,72.49
2018-07-30T01:39:01.417Z,71.41
2018-07-30T01:41:29.969Z,72.31
2018-07-30T01:43:58.583Z,72.17
2018-07-30T01:46:27.138Z,72.28
2018-07-30T01:48:55.656Z,71.82
2018-07-30T01:51:24.491Z,72.45
2018-07-30T01:53:53.024Z,72.77
2018-07-30T01:56:22.243Z,71.68
2018-07-30T01:58:50.764Z,71.98
2018-07-30T02:01:19.361Z,73.10
2018-07-30T02:03:47.916Z,73.62
2018-07-30T02:06:16.591Z,75.22
2018-07-30T02:08:45.158Z,75.09
2018-07-30T02:11:13.741Z,75.21
2018-07-30T02:13:42.292Z,73.43
2018-07-30T02:16:10.845Z,72.71
2018-07-30T02:18:39.372Z,72.60
2018-07-30T02:21:07.992Z,72.51
2018-07-30T02:23:36.520Z,72.57
2018-07-30T02:26:05.084Z,73.58
2018-07-30T02:28:33.604Z,73.37
2018-07-30T02:31:02.194Z,74.25
2018-07-30T02:33:30.770Z,75.29
2018-07-30T02:35:59.316Z,74.12
2018-07-30T02:38:27.904Z,77.18
2018-07-30T02:41:09.196Z,76.34
2018-07-30T02:43:52.616Z,75.20
2018-07-30T02:46:22.924Z,75.29
2018-07-30T02:51:28.643Z,75.63
2018-07-30T02:53:57.235Z,75.92
2018-07-30T02:56:26.084Z,76.69
2018-07-30T02:58:54.835Z,77.05
2018-07-30T03:01:23.364Z,76.12
2018-07-30T03:03:52.411Z,76.65
2018-07-30T03:06:21.036Z,76.68
2018-07-30T03:08:49.540Z,76.43
2018-07-30T03:11:18.038Z,75.53
2018-07-30T03:13:46.694Z,75.41
2018-07-30T03:16:15.224Z,75.30
2018-07-30T03:18:43.796Z,76.16
2018-07-30T03:21:12.313Z,74.81
2018-07-30T03:23:40.860Z,77.42
2018-07-30T03:26:09.373Z,77.74
2018-07-30T03:28:37.956Z,77.18
2018-07-30T03:31:06.521Z,77.83
2018-07-30T03:33:35.067Z,75.80
2018-07-30T03:36:03.640Z,76.19
2018-07-30T03:38:32.198Z,77.99
2018-07-30T03:41:00.708Z,75.50
2018-07-30T03:43:29.307Z,76.05
2018-07-30T03:45:57.819Z,74.84
2018-07-30T03:48:26.548Z,77.49
2018-07-30T03:50:55.100Z,78.38
2018-07-30T03:53:23.638Z,76.17
2018-07-30T03:55:52.632Z,77.51
2018-07-30T03:58:21.267Z,75.39
2018-07-30T04:00:49.765Z,75.50
2018-07-30T04:03:18.325Z,76.45
2018-07-30T04:05:46.840Z,77.78
2018-07-30T04:08:15.641Z,78.15
2018-07-30T04:10:44.157Z,77.94
2018-07-30T04:13:12.725Z,78.44
2018-07-30T04:15:42.087Z,78.50
2018-07-30T04:18:10.630Z,78.19
2018-07-30T04:20:39.417Z,77.16
2018-07-30T04:23:07.972Z,76.22
2018-07-30T04:25:36.473Z,75.67
2018-07-30T04:28:05.030Z,76.13
2018-07-30T04:30:33.544Z,77.49
2018-07-30T04:33:02.094Z,78.65
2018-07-30T04:35:30.604Z,78.40
2018-07-30T04:37:59.136Z,78.44
2018-07-30T04:40:27.647Z,78.13
2018-07-30T04:42:56.231Z,78.08
2018-07-30T04:45:24.772Z,78.07
2018-07-30T04:47:53.412Z,77.65
2018-07-30T04:50:22.897Z,75.97
2018-07-30T04:52:51.461Z,76.85
2018-07-30T04:55:19.992Z,77.86
2018-07-30T04:57:48.533Z,78.40
2018-07-30T05:00:17.095Z,77.49
2018-07-30T05:02:45.623Z,77.00
2018-07-30T05:05:14.178Z,76.16
2018-07-30T05:07:42.988Z,75.95
2018-07-30T05:10:11.566Z,75.58
2018-07-30T05:12:40.104Z,74.77
2018-07-30T05:15:08.714Z,75.67
2018-07-30T05:17:37.232Z,74.15
2018-07-30T05:20:05.941Z,76.28
2018-07-30T05:22:34.484Z,75.69
2018-07-30T05:25:03.034Z,74.29
2018-07-30T05:27:31.556Z,74.13
2018-07-30T05:30:00.105Z,72.54
2018-07-30T05:32:28.636Z,73.35
2018-07-30T05:34:57.192Z,72.17
2018-07-30T05:37:25.725Z,73.95
2018-07-30T05:39:54.489Z,74.24
2018-07-30T05:42:23.109Z,72.50
2018-07-30T05:44:51.665Z,72.83
2018-07-30T05:47:20.209Z,73.50
2018-07-30T05:49:48.752Z,71.91
2018-07-30T05:52:17.308Z,72.81
2018-07-30T05:54:45.869Z,72.12
2018-07-30T05:57:14.411Z,71.25
2018-07-30T05:59:43.622Z,71.76
2018-07-30T06:02:12.193Z,70.80
2018-07-30T06:04:40.821Z,69.88
2018-07-30T06:07:16.086Z,71.30
2018-07-30T06:09:44.939Z,68.73
2018-07-30T06:12:13.520Z,67.98
2018-07-30T06:14:42.103Z,68.18
2018-07-30T06:17:10.644Z,69.75
2018-07-30T06:19:39.216Z,68.14
2018-07-30T06:22:07.788Z,68.37
2018-07-30T06:24:43.252Z,67.50
2018-07-30T06:27:12.009Z,67.68
2018-07-30T06:29:40.585Z,66.91
2018-07-30T06:32:09.110Z,66.71
2018-07-30T06:34:37.700Z,67.16
2018-07-30T06:37:06.216Z,66.53
2018-07-30T06:39:34.776Z,66.16
2018-07-30T06:42:03.386Z,66.59
2018-07-30T06:44:32.013Z,66.92
2018-07-30T06:47:00.537Z,65.88
2018-07-30T06:49:35.153Z,64.86
2018-07-30T06:52:03.732Z,64.99
2018-07-30T06:54:32.289Z,65.11
2018-07-30T06:57:00.824Z,65.24
2018-07-30T06:59:29.373Z,64.57
2018-07-30T07:01:57.984Z,65.10
2018-07-30T07:04:26.578Z,64.51
2018-07-30T07:06:55.237Z,63.61
2018-07-30T07:09:23.765Z,63.13
2018-07-30T07:11:52.354Z,63.12
2018-07-30T07:14:20.896Z,62.51
2018-07-30T07:16:49.457Z,62.81
2018-07-30T07:19:17.971Z,63.31
2018-07-30T07:21:46.902Z,61.89
2018-07-30T07:24:15.412Z,61.80
2018-07-30T07:26:43.960Z,61.11
2018-07-30T07:29:12.474Z,61.32
2018-07-30T07:31:41.030Z,61.50
2018-07-30T07:34:09.570Z,60.68
2018-07-30T07:36:38.136Z,60.08
2018-07-30T07:39:09.031Z,58.42
2018-07-30T07:41:37.620Z,58.54
2018-07-30T07:44:06.216Z,58.71
2018-07-30T07:46:34.838Z,58.10
2018-07-30T07:49:03.501Z,58.16
2018-07-30T07:51:32.099Z,57.66
2018-07-30T07:54:00.693Z,57.57
2018-07-30T07:56:29.269Z,58.33
2018-07-30T07:58:57.789Z,56.42
2018-07-30T08:01:26.492Z,56.33
2018-07-30T08:03:55.038Z,56.02
2018-07-30T08:06:23.705Z,55.78
2018-07-30T08:08:52.222Z,55.49
2018-07-30T08:11:20.804Z,54.77
2018-07-30T08:13:49.341Z,53.96
2018-07-30T08:16:17.966Z,54.48
2018-07-30T08:18:46.488Z,54.82
2018-07-30T08:21:15.048Z,55.06
2018-07-30T08:23:43.581Z,54.63
2018-07-30T08:26:12.775Z,54.37
2018-07-30T08:28:41.317Z,54.52
2018-07-30T08:31:09.872Z,54.37
2018-07-30T08:33:38.436Z,53.74
2018-07-30T08:36:07.327Z,53.21
2018-07-30T08:38:42.817Z,52.21
2018-07-30T08:41:11.433Z,53.23
2018-07-30T08:43:40.007Z,52.43
2018-07-30T08:46:08.687Z,52.05
2018-07-30T08:48:37.232Z,48.88
2018-07-30T08:51:05.777Z,48.66
2018-07-30T08:53:34.312Z,47.72
2018-07-30T08:56:02.904Z,46.09
2018-07-30T08:58:31.484Z,46.14
2018-07-30T09:01:01.862Z,45.89
2018-07-30T09:03:30.973Z,46.05
2018-07-30T09:06:00.301Z,45.16
2018-07-30T09:08:29.579Z,46.16
2018-07-30T09:10:58.119Z,46.43
2018-07-30T09:13:26.672Z,47.19
2018-07-30T09:15:55.188Z,45.92
2018-07-30T09:18:24.310Z,47.12
2018-07-30T09:20:53.148Z,46.84
2018-07-30T09:23:22.550Z,46.66
2018-07-30T09:25:57.396Z,46.21
2018-07-30T09:28:31.543Z,46.01
2018-07-30T09:31:10.857Z,45.08
2018-07-30T09:33:45.820Z,45.11
2018-07-30T09:36:25.068Z,45.24
2018-07-30T09:38:57.224Z,44.95
2018-07-30T09:41:26.854Z,44.75
2018-07-30T09:43:59.514Z,45.16
2018-07-30T09:46:29.088Z,45.48
2018-07-30T09:48:59.192Z,46.32
2018-07-30T09:51:33.336Z,45.50
2018-07-30T09:54:04.428Z,41.17
2018-07-30T09:56:36.639Z,41.37
2018-07-30T09:59:09.687Z,41.35
2018-07-30T10:01:39.645Z,42.60
2018-07-30T10:04:12.232Z,42.01
2018-07-30T10:06:47.442Z,42.48
2018-07-30T10:09:20.972Z,42.97
2018-07-30T10:11:54.046Z,42.20
2018-07-30T10:14:28.499Z,41.09
2018-07-30T10:17:04.415Z,40.92
2018-07-30T10:19:36.139Z,41.78
2018-07-30T10:22:05.268Z,41.30
2018-07-30T10:24:35.862Z,41.78
2018-07-30T10:27:09.873Z,42.46
2018-07-30T10:29:40.208Z,41.37
2018-07-30T10:32:13.426Z,40.94
2018-07-30T10:34:46.669Z,40.98
2018-07-30T10:37:16.543Z,41.37
2018-07-30T10:39:48.665Z,40.87
2018-07-30T10:42:17.836Z,39.36
2018-07-30T10:44:46.729Z,39.63
2018-07-30T10:47:18.911Z,39.77
2018-07-30T10:49:49.014Z,41.08
2018-07-30T10:52:19.244Z,40.04
2018-07-30T10:54:50.206Z,39.64
2018-07-30T10:57:20.349Z,40.00
2018-07-30T10:59:49.032Z,39.76
2018-07-30T11:02:20.605Z,39.23
2018-07-30T11:04:52.776Z,39.03
2018-07-30T11:07:21.685Z,39.96
2018-07-30T11:09:50.257Z,39.55
2018-07-30T11:12:18.787Z,38.88
2018-07-30T11:14:47.356Z,37.36
2018-07-30T11:17:15.872Z,38.85
2018-07-30T11:19:44.421Z,39.08
2018-07-30T11:22:18.056Z,37.90
2018-07-30T11:24:48.437Z,38.12
2018-07-30T11:27:20.862Z,39.17
2018-07-30T11:29:49.640Z,38.96
2018-07-30T11:32:18.196Z,39.70
2018-07-30T11:34:46.732Z,40.14
2018-07-30T11:37:15.229Z,38.80
2018-07-30T11:39:43.765Z,38.19
2018-07-30T11:42:12.372Z,36.99
2018-07-30T11:44:40.959Z,37.58
2018-07-30T11:47:13.028Z,38.20
2018-07-30T11:49:41.565Z,37.45
2018-07-30T11:52:10.064Z,36.40
2018-07-30T11:54:38.744Z,36.16
2018-07-30T11:57:07.251Z,36.09
2018-07-30T11:59:35.780Z,36.33
2018-07-30T12:02:04.369Z,36.64
2018-07-30T12:04:32.907Z,37.06
2018-07-30T12:07:01.681Z,37.53
2018-07-30T12:09:30.221Z,36.37
2018-07-30T12:11:58.921Z,38.47
2018-07-30T12:14:27.483Z,39.29
2018-07-30T12:16:57.440Z,38.73
2018-07-30T12:19:27.537Z,38.60
2018-07-30T12:21:56.937Z,39.62
2018-07-30T12:24:25.468Z,38.00
2018-07-30T12:26:54.657Z,37.08
2018-07-30T12:29:23.690Z,37.39
2018-07-30T12:31:52.349Z,36.44
2018-07-30T12:34:20.888Z,36.58
2018-07-30T12:36:49.393Z,36.87
2018-07-30T12:39:18.793Z,37.16
2018-07-30T12:41:47.370Z,36.13
2018-07-30T12:46:58.792Z,35.93
2018-07-30T12:49:27.348Z,35.77
2018-07-30T12:51:55.871Z,35.58
2018-07-30T12:54:24.441Z,35.44
2018-07-30T12:56:53.042Z,36.25
2018-07-30T12:59:21.589Z,36.91
2018-07-30T13:01:50.124Z,36.10
2018-07-30T13:04:18.685Z,36.42
2018-07-30T13:06:47.537Z,36.71
2018-07-30T13:09:16.120Z,35.33
2018-07-30T13:11:44.772Z,34.49
2018-07-30T13:14:13.581Z,34.12
2018-07-30T13:16:42.234Z,34.32
2018-07-30T13:19:10.880Z,33.88
2018-07-30T13:21:39.884Z,32.63
2018-07-30T13:24:08.551Z,33.38
2018-07-30T13:26:37.315Z,34.97
2018-07-30T13:29:10.101Z,33.14
2018-07-30T13:31:38.690Z,33.46
2018-07-30T13:34:07.268Z,35.05
2018-07-30T13:36:35.817Z,34.36
2018-07-30T13:39:06.701Z,33.22
2018-07-30T13:41:35.551Z,32.63
2018-07-30T13:44:04.668Z,32.82
2018-07-30T13:46:33.340Z,32.41
2018-07-30T13:49:02.118Z,32.94
2018-07-30T13:51:30.839Z,31.65
2018-07-30T13:53:59.625Z,32.18
2018-07-30T13:56:30.298Z,33.06
2018-07-30T13:59:00.331Z,33.21
2018-07-30T14:01:30.266Z,35.24
2018-07-30T14:03:58.840Z,34.26
2018-07-30T14:06:27.969Z,32.79
2018-07-30T14:08:57.163Z,33.52
2018-07-30T14:11:27.004Z,33.64
2018-07-30T14:13:56.562Z,33.86
2018-07-30T14:16:28.810Z,33.65
2018-07-30T14:18:59.154Z,33.86
2018-07-30T14:21:28.018Z,34.64
2018-07-30T14:23:56.575Z,34.36
2018-07-30T14:26:25.165Z,33.38
2018-07-30T14:28:53.713Z,33.11
2018-07-30T14:31:24.704Z,32.07
2018-07-30T14:33:56.662Z,32.95
2018-07-30T14:36:25.299Z,32.50
2018-07-30T14:38:53.824Z,32.00
2018-07-30T14:41:22.378Z,31.70
2018-07-30T14:43:50.928Z,31.72
2018-07-30T14:46:19.491Z,31.91
2018-07-30T14:48:48.979Z,32.33
2018-07-30T14:51:19.019Z,32.05
2018-07-30T14:53:47.548Z,31.44
2018-07-30T14:56:16.136Z,32.82
2018-07-30T14:58:44.765Z,32.52
2018-07-30T15:01:13.598Z,33.14
2018-07-30T15:03:42.186Z,32.43
2018-07-30T15:06:10.827Z,33.41
2018-07-30T15:08:40.339Z,32.27
2018-07-30T15:11:09.058Z,31.63
2018-07-30T15:13:37.556Z,31.57
2018-07-30T15:16:06.096Z,31.89
2018-07-30T15:18:34.641Z,31.35
2018-07-30T15:21:03.181Z,31.37
2018-07-30T15:23:32.668Z,30.74
2018-07-30T15:26:01.184Z,31.06
2018-07-30T15:28:29.712Z,30.67
2018-07-30T15:30:58.636Z,29.84
2018-07-30T15:33:27.793Z,29.35
2018-07-30T15:35:56.308Z,29.71
2018-07-30T15:38:24.832Z,30.24
2018-07-30T15:40:53.385Z,29.96
2018-07-30T15:43:21.957Z,30.46
2018-07-30T15:45:50.540Z,30.24
2018-07-30T15:48:19.076Z,31.17
2018-07-30T15:50:47.612Z,30.28
2018-07-30T15:53:16.216Z,31.06
2018-07-30T15:55:44.739Z,31.07
2018-07-30T15:58:13.584Z,31.17
2018-07-30T16:00:42.125Z,31.24
2018-07-30T16:03:10.685Z,31.07
2018-07-30T16:05:39.237Z,32.24
2018-07-30T16:08:07.799Z,32.22
2018-07-30T16:10:36.332Z,30.98
2018-07-30T16:13:04.992Z,30.81
2018-07-30T16:15:34.135Z,31.25
2018-07-30T16:18:02.687Z,31.06
2018-07-30T16:20:31.201Z,30.29
2018-07-30T16:22:59.784Z,29.13
2018-07-30T16:25:28.306Z,29.29
2018-07-30T16:27:56.896Z,29.12
2018-07-30T16:30:25.458Z,28.23
2018-07-30T16:32:54.061Z,28.42
2018-07-30T16:35:22.712Z,27.73
2018-07-30T16:37:51.363Z,29.43
2018-07-30T16:40:19.968Z,28.74
2018-07-30T16:42:48.557Z,28.73
2018-07-30T16:45:17.986Z,29.29
2018-07-30T16:47:46.648Z,28.69
2018-07-30T16:50:15.180Z,28.63
2018-07-30T16:52:43.697Z,29.46
2018-07-30T16:55:12.241Z,29.30
2018-07-30T16:57:40.788Z,29.08
2018-07-30T17:00:11.244Z,29.40
2018-07-30T17:02:39.951Z,29.01
2018-07-30T17:05:08.765Z,28.60
2018-07-30T17:07:37.338Z,27.79
2018-07-30T17:10:05.959Z,24.23
2018-07-30T17:12:34.513Z,24.43
2018-07-30T17:15:03.046Z,24.03
2018-07-30T17:17:32.576Z,22.93
2018-07-30T17:20:09.507Z,21.84
2018-07-30T17:22:38.224Z,21.64
2018-07-30T17:25:07.894Z,20.99
2018-07-30T17:27:37.965Z,20.10
2018-07-30T17:30:07.236Z,20.97
2018-07-30T17:32:36.796Z,20.03
2018-07-30T17:35:05.648Z,21.90
2018-07-30T17:37:34.877Z,21.30
2018-07-30T17:40:03.468Z,20.44
2018-07-30T17:42:32.007Z,20.21
2018-07-30T17:45:00.590Z,19.32
2018-07-30T17:47:29.104Z,20.48
2018-07-30T17:49:57.644Z,21.18
2018-07-30T17:52:26.444Z,22.20
2018-07-30T17:54:55.189Z,23.76
2018-07-30T17:57:23.689Z,22.66
2018-07-30T17:59:52.224Z,21.86
2018-07-30T18:02:20.768Z,22.20
2018-07-30T18:04:49.296Z,22.14
2018-07-30T18:07:17.801Z,22.66
2018-07-30T18:09:46.337Z,22.58
2018-07-30T18:12:14.843Z,24.65
2018-07-30T18:14:43.396Z,25.45
2018-07-30T18:17:11.961Z,26.95
2018-07-30T18:19:40.522Z,26.89
2018-07-30T18:22:09.032Z,27.96
2018-07-30T18:24:38.361Z,28.41
2018-07-30T18:27:06.917Z,28.65
2018-07-30T18:29:37.341Z,28.54
2018-07-30T18:32:18.345Z,27.36
2018-07-30T18:34:48.668Z,28.74
2018-07-30T18:37:17.205Z,29.57
2018-07-30T18:39:45.768Z,30.09
2018-07-30T18:42:14.280Z,33.13
2018-07-30T18:44:42.868Z,32.77
2018-07-30T18:47:11.431Z,34.23
2018-07-30T18:49:39.981Z,36.67
2018-07-30T18:52:08.491Z,37.14
2018-07-30T18:54:37.028Z,37.42
2018-07-30T18:57:06.269Z,39.29
2018-07-30T18:59:34.840Z,40.30
2018-07-30T19:02:03.376Z,40.97
2018-07-30T19:04:31.920Z,41.97
2018-07-30T19:07:01.031Z,42.98
2018-07-30T19:09:29.592Z,44.07
2018-07-30T19:11:59.284Z,44.12
2018-07-30T19:14:27.812Z,43.96
2018-07-30T19:16:56.342Z,45.94
2018-07-30T19:19:24.840Z,45.22
2018-07-30T19:21:53.462Z,45.88
2018-07-30T19:24:22.018Z,44.82
2018-07-30T19:26:50.983Z,46.56
2018-07-30T19:29:19.892Z,46.54
2018-07-30T19:31:48.487Z,47.16
2018-07-30T19:34:16.990Z,47.99
2018-07-30T19:36:45.528Z,49.56
2018-07-30T19:39:15.594Z,49.63
2018-07-30T19:41:44.296Z,49.90
2018-07-30T19:44:12.944Z,49.45
2018-07-30T19:46:43.115Z,51.03
2018-07-30T19:49:11.657Z,50.91
2018-07-30T19:51:40.219Z,51.32
2018-07-30T19:54:08.772Z,51.33
2018-07-30T19:56:37.325Z,54.44
2018-07-30T19:59:06.304Z,54.32
2018-07-30T20:01:34.796Z,52.91
2018-07-30T20:04:03.337Z,53.47
2018-07-30T20:06:31.912Z,52.98
2018-07-30T20:09:00.432Z,52.62
2018-07-30T20:11:28.980Z,53.16
2018-07-30T20:13:57.508Z,53.44
2018-07-30T20:16:26.073Z,54.91
2018-07-30T20:18:54.609Z,55.43
2018-07-30T20:21:23.163Z,56.26
2018-07-30T20:23:51.692Z,57.93
2018-07-30T20:26:20.329Z,57.22
2018-07-30T20:28:48.869Z,57.67
2018-07-30T20:31:22.728Z,57.78
2018-07-30T20:33:51.254Z,58.17
2018-07-30T20:36:19.812Z,58.73
2018-07-30T20:38:48.421Z,59.34
2018-07-30T20:41:17.008Z,59.53
2018-07-30T20:43:45.770Z,58.79
2018-07-30T20:46:14.320Z,57.49
2018-07-30T20:48:42.881Z,58.64
2018-07-30T20:51:11.450Z,59.04
2018-07-30T20:53:39.941Z,59.67
2018-07-30T20:56:12.344Z,59.99
2018-07-30T20:58:41.152Z,60.00
2018-07-30T21:01:09.783Z,60.06
2018-07-30T21:03:38.384Z,59.28
2018-07-30T21:06:07.029Z,59.87
2018-07-30T21:08:35.635Z,61.65
2018-07-30T21:11:04.439Z,61.57
2018-07-30T21:13:36.770Z,62.29
2018-07-30T21:16:05.413Z,61.56
2018-07-30T21:18:33.972Z,60.42
2018-07-30T21:21:02.469Z,61.53
2018-07-30T21:23:32.260Z,62.22
2018-07-30T21:26:01.252Z,61.21
2018-07-30T21:28:29.952Z,62.83
2018-07-30T21:30:58.717Z,61.55
2018-07-30T21:33:27.657Z,61.39
2018-07-30T21:35:56.151Z,62.32
2018-07-30T21:38:24.808Z,61.49
2018-07-30T21:40:53.377Z,59.73
2018-07-30T21:43:21.976Z,59.97
2018-07-30T21:45:50.513Z,61.25
2018-07-30T21:48:19.112Z,62.40
2018-07-30T21:50:47.617Z,64.19
2018-07-30T21:53:16.157Z,63.25
2018-07-30T21:55:44.678Z,65.27
2018-07-30T21:58:14.397Z,64.70
2018-07-30T22:00:51.733Z,64.45
2018-07-30T22:03:20.308Z,63.66
2018-07-30T22:05:52.954Z,64.00
2018-07-30T22:08:21.488Z,63.23
2018-07-30T22:10:50.029Z,64.13
2018-07-30T22:13:18.596Z,63.97
2018-07-30T22:15:49.249Z,65.67
2018-07-30T22:18:19.580Z,66.21
2018-07-30T22:20:51.793Z,66.84
2018-07-30T22:23:25.691Z,67.74
2018-07-30T22:25:55.661Z,67.89
2018-07-30T22:28:24.200Z,66.81
2018-07-30T22:30:54.546Z,67.43
2018-07-30T22:33:24.155Z,66.91
2018-07-30T22:35:52.848Z,66.82
2018-07-30T22:38:23.215Z,67.88
2018-07-30T22:40:52.042Z,68.39
2018-07-30T22:43:21.072Z,67.82
2018-07-30T22:45:52.244Z,67.03
2018-07-30T22:48:20.829Z,67.78
2018-07-30T22:50:50.347Z,68.23
2018-07-30T22:53:18.913Z,68.18
2018-07-30T22:55:47.440Z,67.87
2018-07-30T22:58:15.998Z,68.77
2018-07-30T23:00:44.616Z,67.94
2018-07-30T23:03:13.103Z,68.04
2018-07-30T23:05:41.681Z,69.24
2018-07-30T23:08:10.244Z,69.13
2018-07-30T23:10:38.768Z,68.46
2018-07-30T23:13:07.340Z,67.58
2018-07-30T23:15:35.880Z,69.03
2018-07-30T23:18:04.487Z,68.86
2018-07-30T23:20:33.016Z,71.26
2018-07-30T23:23:01.583Z,72.41
2018-07-30T23:25:30.212Z,70.86
2018-07-30T23:27:58.772Z,69.74
2018-07-30T23:30:27.333Z,70.28
2018-07-30T23:32:55.868Z,69.96
2018-07-30T23:35:24.472Z,69.39
2018-07-30T23:37:53.042Z,69.43
2018-07-30T23:40:23.729Z,68.36
2018-07-30T23:42:55.030Z,69.00
2018-07-30T23:45:23.664Z,70.79
2018-07-30T23:47:52.264Z,71.76
2018-07-30T23:50:20.968Z,70.95
2018-07-30T23:52:49.736Z,71.08
2018-07-30T23:55:18.353Z,70.67
2018-07-30T23:57:46.830Z,70.51
